Time;durP1;ratioP1;P1;durP2;ratioP2;P2;SDS_P1;SDS_P2;PMS_P1;PMS_P2;Temp;Humidity;BMP_temperature;BMP_pressure;BME280_temperature;BME280_humidity;BME280_pressure;Samples;Min_cycle;Max_cycle;Signal;HPM_P1;HPM_P2
2022/06/05 00:02:22;;;;;;;12.68;9.70;;;16.30;70.80;;;;;;5009924;28;20030;-70
2022/06/05 00:05:28;;;;;;;11.55;7.63;;;16.30;71.00;;;;;;5007997;28;20022;-71
2022/06/05 00:07:56;;;;;;;10.50;6.20;;;16.30;71.20;;;;;;4994897;28;20050;-71
2022/06/05 00:10:24;;;;;;;8.18;6.25;;;16.20;71.40;;;;;;5008124;28;20057;-71
2022/06/05 00:13:22;;;;;;;8.43;6.97;;;16.20;71.60;;;;;;5006735;28;20042;-71
2022/06/05 00:15:48;;;;;;;8.00;6.25;;;16.20;71.90;;;;;;5012987;28;20074;-71
2022/06/05 00:18:14;;;;;;;7.07;6.18;;;16.20;72.00;;;;;;5011373;28;20057;-71
2022/06/05 00:20:44;;;;;;;8.75;6.63;;;16.10;72.30;;;;;;5011348;28;20452;-71
2022/06/05 00:23:10;;;;;;;10.75;9.48;;;16.10;72.70;;;;;;5014211;28;20025;-71
2022/06/05 00:25:51;;;;;;;9.30;7.78;;;16.10;72.80;;;;;;5010660;28;20036;-71
2022/06/05 00:28:33;;;;;;;8.73;7.82;;;16.10;73.10;;;;;;5006891;28;20428;-71
2022/06/05 00:31:12;;;;;;;10.50;8.25;;;16.10;73.30;;;;;;4998433;28;20045;-71
2022/06/05 00:33:40;;;;;;;8.77;7.28;;;16.00;73.40;;;;;;5000315;28;20041;-71
2022/06/05 00:36:28;;;;;;;7.47;6.22;;;16.00;73.70;;;;;;5011247;28;20036;-71
2022/06/05 00:39:07;;;;;;;9.65;6.50;;;16.00;74.50;;;;;;5003494;28;20495;-71
2022/06/05 00:41:46;;;;;;;8.23;6.82;;;16.00;74.20;;;;;;5003885;28;20036;-71
2022/06/05 00:44:15;;;;;;;7.07;5.90;;;16.00;74.30;;;;;;5012369;28;20058;-71
2022/06/05 00:46:42;;;;;;;10.63;6.90;;;16.00;74.60;;;;;;5009821;28;20069;-71
2022/06/05 00:49:09;;;;;;;8.73;7.32;;;16.00;74.70;;;;;;5000423;28;20034;-71
2022/06/05 00:51:36;;;;;;;15.25;12.82;;;16.00;74.90;;;;;;5012178;28;20426;-70
2022/06/05 00:54:02;;;;;;;16.73;14.15;;;16.00;75.10;;;;;;5011279;28;20070;-70
2022/06/05 00:56:28;;;;;;;13.65;12.25;;;16.00;75.30;;;;;;4998283;28;20026;-70
2022/06/05 00:58:54;;;;;;;14.40;12.55;;;16.00;75.50;;;;;;4994261;28;20038;-71
2022/06/05 01:01:21;;;;;;;12.50;11.00;;;15.90;75.60;;;;;;4998923;28;20073;-71
2022/06/05 01:03:47;;;;;;;16.92;15.23;;;15.90;75.80;;;;;;5013426;28;20456;-71
2022/06/05 01:06:13;;;;;;;16.95;14.40;;;15.90;76.10;;;;;;4998022;28;20052;-71
2022/06/05 01:08:39;;;;;;;12.73;11.32;;;15.80;76.10;;;;;;5006345;28;20034;-70
2022/06/05 01:11:36;;;;;;;11.73;9.73;;;15.80;76.30;;;;;;5011206;28;20050;-70
2022/06/05 01:14:40;;;;;;;13.73;11.63;;;15.80;76.50;;;;;;5000717;28;20065;-71
2022/06/05 01:17:23;;;;;;;15.52;12.82;;;15.70;76.70;;;;;;4996277;28;20046;-71
2022/06/05 01:19:59;;;;;;;12.10;10.02;;;15.70;76.90;;;;;;5008146;28;20351;-70
2022/06/05 01:22:56;;;;;;;13.40;10.73;;;15.60;77.00;;;;;;5010303;28;20088;-70
2022/06/05 01:25:52;;;;;;;12.77;11.13;;;15.60;77.20;;;;;;5009321;28;20026;-70
2022/06/05 01:28:22;;;;;;;20.23;18.17;;;15.60;77.50;;;;;;4996915;28;20117;-69
2022/06/05 01:30:55;;;;;;;14.40;13.00;;;15.60;77.70;;;;;;4997836;28;20022;-69
2022/06/05 01:33:24;;;;;;;11.10;8.60;;;15.60;78.00;;;;;;5006618;28;20080;-69
2022/06/05 01:36:38;;;;;;;10.43;8.10;;;15.50;78.20;;;;;;5010710;28;20026;-70
2022/06/05 01:39:11;;;;;;;11.32;9.20;;;15.50;78.50;;;;;;4979069;28;20105;-69
2022/06/05 01:41:48;;;;;;;11.90;9.68;;;15.40;78.60;;;;;;4982456;28;20137;-69
2022/06/05 01:44:22;;;;;;;12.77;9.70;;;15.40;79.00;;;;;;5003258;28;20050;-70
2022/06/05 01:46:48;;;;;;;13.60;9.40;;;15.40;79.20;;;;;;5008434;28;20504;-70
2022/06/05 01:49:31;;;;;;;13.48;11.52;;;15.30;79.30;;;;;;5010631;28;20038;-71
2022/06/05 01:52:19;;;;;;;16.85;14.98;;;15.20;79.80;;;;;;5000881;28;20026;-71
2022/06/05 01:54:54;;;;;;;10.70;9.35;;;15.20;80.20;;;;;;5012465;28;20037;-72
2022/06/05 01:57:22;;;;;;;12.73;8.88;;;15.20;80.50;;;;;;5008801;28;20026;-71
2022/06/05 01:59:56;;;;;;;10.85;8.45;;;15.20;80.80;;;;;;5013388;28;20038;-70
2022/06/05 02:02:39;;;;;;;10.80;7.68;;;15.20;81.20;;;;;;5005125;28;20026;-71
2022/06/05 02:05:10;;;;;;;11.73;8.93;;;15.10;81.30;;;;;;5011743;28;20041;-73
2022/06/05 02:07:43;;;;;;;14.90;12.02;;;15.10;81.50;;;;;;4994604;28;20101;-71
2022/06/05 02:10:22;;;;;;;13.63;11.27;;;15.10;81.80;;;;;;5004548;28;20054;-71
2022/06/05 02:12:48;;;;;;;20.75;18.38;;;15.10;82.00;;;;;;5009422;28;20287;-70
2022/06/05 02:15:14;;;;;;;20.33;14.55;;;15.10;82.10;;;;;;4998179;28;20034;-70
2022/06/05 02:17:40;;;;;;;16.23;11.50;;;15.10;82.30;;;;;;4992887;28;20432;-70
2022/06/05 02:20:08;;;;;;;15.27;10.00;;;15.00;82.50;;;;;;4995635;28;20025;-70
2022/06/05 02:22:37;;;;;;;13.90;12.25;;;15.00;82.80;;;;;;5003845;28;20038;-70
2022/06/05 02:25:05;;;;;;;20.58;18.50;;;15.00;83.10;;;;;;5000689;28;20412;-71
2022/06/05 02:27:31;;;;;;;16.60;14.40;;;14.90;83.30;;;;;;5006988;28;20030;-71
2022/06/05 02:29:58;;;;;;;18.17;14.75;;;14.90;83.50;;;;;;5001907;28;20455;-71
2022/06/05 02:32:53;;;;;;;19.65;14.15;;;14.80;83.80;;;;;;5007773;28;20083;-71
2022/06/05 02:35:40;;;;;;;9.80;8.63;;;14.80;84.10;;;;;;4997186;28;20046;-72
2022/06/05 02:38:31;;;;;;;13.25;8.85;;;14.80;84.20;;;;;;4992448;28;20041;-72
2022/06/05 02:41:19;;;;;;;17.05;10.93;;;14.80;84.60;;;;;;5008388;28;20053;-72
2022/06/05 02:46:51;;;;;;;12.77;10.63;;;14.70;85.00;;;;;;4997916;28;20042;-71
2022/06/05 02:49:31;;;;;;;18.73;14.05;;;14.70;85.40;;;;;;5010674;28;20473;-71
2022/06/05 02:52:01;;;;;;;19.48;15.05;;;14.60;85.80;;;;;;5011110;28;20096;-72
2022/06/05 02:54:27;;;;;;;14.90;13.40;;;14.60;86.00;;;;;;5010839;28;20037;-72
2022/06/05 02:56:55;;;;;;;14.98;13.10;;;14.50;86.20;;;;;;5010872;28;20029;-73
2022/06/05 02:59:23;;;;;;;11.90;10.30;;;14.60;86.60;;;;;;5011043;28;20027;-72
2022/06/05 03:04:32;;;;;;;13.82;10.93;;;14.50;87.20;;;;;;5004727;28;20033;-72
2022/06/05 03:06:58;;;;;;;11.48;9.40;;;14.50;87.50;;;;;;4992520;28;20030;-73
2022/06/05 03:09:23;;;;;;;11.35;8.30;;;14.40;87.80;;;;;;5010286;28;20129;-72
2022/06/05 03:11:49;;;;;;;12.18;9.10;;;14.50;88.10;;;;;;5010712;28;20061;-73
2022/06/05 03:14:14;;;;;;;11.70;8.85;;;14.50;88.30;;;;;;5010552;28;20422;-71
2022/06/05 03:16:40;;;;;;;13.43;8.85;;;14.50;88.60;;;;;;4998672;28;20030;-72
2022/06/05 03:19:06;;;;;;;10.88;8.43;;;14.50;88.70;;;;;;5010439;28;20109;-73
2022/06/05 03:21:33;;;;;;;12.88;8.45;;;14.50;88.90;;;;;;5006268;28;20162;-73
2022/06/05 03:23:58;;;;;;;11.00;8.23;;;14.50;89.10;;;;;;4992500;28;20042;-73
2022/06/05 03:26:24;;;;;;;13.45;8.57;;;14.50;89.20;;;;;;4998549;28;20037;-73
2022/06/05 03:28:49;;;;;;;13.30;8.93;;;14.60;89.30;;;;;;5002300;28;20529;-72
2022/06/05 03:31:15;;;;;;;10.98;8.23;;;14.60;89.50;;;;;;5010853;28;20022;-72
2022/06/05 03:33:41;;;;;;;10.57;8.30;;;14.60;89.70;;;;;;4996160;28;20030;-76
2022/06/05 03:36:14;;;;;;;12.77;9.63;;;14.60;89.70;;;;;;4994818;28;20505;-72
2022/06/05 03:38:40;;;;;;;10.60;7.95;;;14.70;89.90;;;;;;5015496;28;20026;-72
2022/06/05 03:41:08;;;;;;;8.73;7.75;;;14.70;89.80;;;;;;5008885;28;20473;-72
2022/06/05 03:43:35;;;;;;;10.27;7.70;;;14.70;89.80;;;;;;5006749;28;20079;-71
2022/06/05 03:46:07;;;;;;;8.98;7.20;;;14.70;89.80;;;;;;4995403;28;20034;-70
2022/06/05 03:48:33;;;;;;;10.45;7.78;;;14.80;89.90;;;;;;4998230;28;20030;-71
2022/06/05 03:50:59;;;;;;;10.20;7.18;;;14.80;89.80;;;;;;5011638;28;20030;-72
2022/06/05 03:53:24;;;;;;;10.18;8.52;;;14.90;89.70;;;;;;5011953;28;20050;-71
2022/06/05 03:55:50;;;;;;;11.77;7.43;;;14.80;89.30;;;;;;5012550;28;20026;-71
2022/06/05 03:58:16;;;;;;;10.95;8.73;;;14.80;89.30;;;;;;5008914;28;20117;-72
2022/06/05 04:00:42;;;;;;;10.35;8.50;;;14.80;89.10;;;;;;5014492;28;20022;-73
2022/06/05 04:03:08;;;;;;;9.55;7.72;;;14.90;88.90;;;;;;4999695;28;20064;-72
2022/06/05 04:05:34;;;;;;;11.35;10.15;;;14.80;88.80;;;;;;5013429;28;20034;-72
2022/06/05 04:08:00;;;;;;;14.88;10.35;;;14.80;88.90;;;;;;5013719;28;20431;-72
2022/06/05 04:10:25;;;;;;;13.68;11.60;;;14.80;88.90;;;;;;5022473;28;20049;-71
2022/06/05 04:12:52;;;;;;;12.93;9.40;;;14.80;89.00;;;;;;5016291;28;20096;-71
2022/06/05 04:15:18;;;;;;;13.55;9.55;;;14.80;89.10;;;;;;5013057;28;20038;-72
2022/06/05 04:17:44;;;;;;;13.23;11.93;;;14.80;89.20;;;;;;5001668;28;20026;-71
2022/06/05 04:20:10;;;;;;;16.10;11.88;;;14.80;89.20;;;;;;4995154;28;20026;-71
2022/06/05 04:22:38;;;;;;;19.75;11.02;;;14.90;89.40;;;;;;5004393;28;20061;-71
2022/06/05 04:25:05;;;;;;;14.30;8.88;;;14.90;89.50;;;;;;5014622;28;20049;-72
2022/06/05 04:27:30;;;;;;;14.23;10.82;;;14.90;89.60;;;;;;5003773;28;20085;-72
2022/06/05 04:29:58;;;;;;;13.80;12.02;;;14.90;89.60;;;;;;4998997;28;20421;-71
2022/06/05 04:32:24;;;;;;;15.35;10.85;;;14.90;89.70;;;;;;4999058;28;20042;-72
2022/06/05 04:34:50;;;;;;;14.75;9.88;;;14.90;89.70;;;;;;4994444;28;20042;-71
2022/06/05 04:37:16;;;;;;;13.07;8.45;;;15.00;89.90;;;;;;4998176;28;20027;-71
2022/06/05 04:39:41;;;;;;;13.70;9.95;;;15.00;89.80;;;;;;4994606;28;20030;-70
2022/06/05 04:42:07;;;;;;;13.13;8.80;;;15.10;90.00;;;;;;5005466;28;20072;-71
2022/06/05 04:44:32;;;;;;;10.73;7.80;;;15.10;89.70;;;;;;5014192;28;20030;-71
2022/06/05 04:46:58;;;;;;;11.68;9.13;;;15.10;89.70;;;;;;5005316;28;20030;-72
2022/06/05 04:49:24;;;;;;;14.45;11.88;;;15.10;89.70;;;;;;5010208;28;20473;-72
2022/06/05 04:51:50;;;;;;;17.35;14.63;;;15.10;89.60;;;;;;5007697;28;20037;-72
2022/06/05 04:54:16;;;;;;;11.35;9.32;;;15.10;89.60;;;;;;4994430;28;20105;-71
2022/06/05 04:56:42;;;;;;;12.70;8.40;;;15.10;89.80;;;;;;4995624;28;20363;-70
2022/06/05 04:59:09;;;;;;;12.52;9.70;;;15.10;89.80;;;;;;5012327;28;20037;-72
2022/06/05 05:01:37;;;;;;;13.93;10.20;;;15.10;89.80;;;;;;5008208;28;20382;-71
2022/06/05 05:04:06;;;;;;;10.30;8.75;;;15.10;89.90;;;;;;4994580;28;20026;-72
2022/06/05 05:06:32;;;;;;;11.10;9.60;;;15.10;90.00;;;;;;4998372;28;20492;-72
2022/06/05 05:08:59;;;;;;;16.52;13.38;;;15.10;89.90;;;;;;5009361;28;20386;-72
2022/06/05 05:11:24;;;;;;;14.45;10.48;;;15.10;89.80;;;;;;4996890;28;20034;-71
2022/06/05 05:13:53;;;;;;;15.02;9.23;;;15.10;89.90;;;;;;4994041;28;20081;-71
2022/06/05 05:16:18;;;;;;;11.65;8.40;;;15.10;90.00;;;;;;4996131;28;20418;-72
2022/06/05 05:18:44;;;;;;;11.73;8.13;;;15.20;90.00;;;;;;5006058;28;20041;-71
2022/06/05 05:21:15;;;;;;;12.38;10.68;;;15.30;90.00;;;;;;4994967;28;20026;-72
2022/06/05 05:23:42;;;;;;;11.50;8.55;;;15.30;90.00;;;;;;4993099;28;20077;-71
2022/06/05 05:26:13;;;;;;;11.23;8.95;;;15.30;90.00;;;;;;4994904;28;20036;-71
2022/06/05 05:28:40;;;;;;;11.38;8.32;;;15.30;90.10;;;;;;4994115;28;20026;-71
2022/06/05 05:31:15;;;;;;;11.75;9.05;;;15.40;90.10;;;;;;5001356;28;20022;-73
2022/06/05 05:33:41;;;;;;;11.88;8.73;;;15.40;90.10;;;;;;5008106;28;20058;-72
2022/06/05 05:36:08;;;;;;;12.35;9.30;;;15.50;90.00;;;;;;5011732;28;20053;-71
2022/06/05 05:38:34;;;;;;;10.68;7.70;;;15.60;90.10;;;;;;4993731;28;20053;-71
2022/06/05 05:43:44;;;;;;;12.03;9.13;;;15.60;89.90;;;;;;4994205;28;20084;-72
2022/06/05 05:46:11;;;;;;;10.65;8.15;;;15.70;89.90;;;;;;4996731;28;20391;-73
2022/06/05 05:48:38;;;;;;;10.98;8.50;;;15.70;89.80;;;;;;5013053;28;20038;-72
2022/06/05 05:51:09;;;;;;;10.68;8.25;;;15.70;89.80;;;;;;5009943;28;20030;-73
2022/06/05 05:53:34;;;;;;;11.25;7.90;;;15.70;89.80;;;;;;4993360;28;20042;-73
2022/06/05 05:56:09;;;;;;;10.07;8.02;;;15.80;89.70;;;;;;4993717;28;20018;-73
2022/06/05 05:58:35;;;;;;;;;;;15.80;89.70;;;;;;4995895;28;20027;-73
2022/06/05 06:01:03;;;;;;;13.50;8.63;;;15.90;89.40;;;;;;5000015;28;19957;-72
2022/06/05 06:03:29;;;;;;;9.27;8.20;;;15.90;89.40;;;;;;4995857;28;20501;-73
2022/06/05 06:05:57;;;;;;;9.20;7.53;;;16.00;89.60;;;;;;4998252;28;20029;-73
2022/06/05 06:08:22;;;;;;;9.57;7.00;;;16.00;89.60;;;;;;4995696;28;20034;-74
2022/06/05 06:10:48;;;;;;;10.00;7.05;;;16.10;89.60;;;;;;5007949;28;20076;-71
2022/06/05 06:13:13;;;;;;;9.25;7.05;;;16.20;89.50;;;;;;5005494;28;20441;-72
2022/06/05 06:15:39;;;;;;;10.32;7.28;;;16.30;89.60;;;;;;5003650;28;20026;-71
2022/06/05 06:18:05;;;;;;;8.80;6.80;;;16.40;89.60;;;;;;5012859;28;20113;-74
2022/06/05 06:20:30;;;;;;;8.40;7.15;;;16.50;89.60;;;;;;5018438;28;20385;-73
2022/06/05 06:22:56;;;;;;;15.23;7.55;;;16.60;89.40;;;;;;5005335;28;20053;-72
2022/06/05 06:25:21;;;;;;;8.70;7.18;;;16.70;89.20;;;;;;5014572;28;20026;-72
2022/06/05 06:27:47;;;;;;;9.32;6.70;;;16.70;88.90;;;;;;5004147;28;20324;-73
2022/06/05 06:30:12;;;;;;;9.38;6.78;;;16.80;88.70;;;;;;5017178;28;20052;-72
2022/06/05 06:32:38;;;;;;;8.85;6.70;;;16.90;88.50;;;;;;5020740;28;20041;-72
2022/06/05 06:35:04;;;;;;;9.02;7.15;;;17.00;88.50;;;;;;5018641;28;20100;-71
2022/06/05 06:37:29;;;;;;;12.32;7.25;;;17.10;88.50;;;;;;5001505;28;20443;-68
2022/06/05 06:39:55;;;;;;;9.27;6.82;;;17.20;88.20;;;;;;4995909;28;20037;-69
2022/06/05 06:42:21;;;;;;;8.98;6.72;;;17.30;88.10;;;;;;5004533;28;20068;-68
2022/06/05 06:44:46;;;;;;;8.80;6.85;;;17.40;88.00;;;;;;5021568;28;20469;-68
2022/06/05 06:47:12;;;;;;;10.73;7.28;;;17.50;88.00;;;;;;5004293;28;20026;-68
2022/06/05 06:49:37;;;;;;;8.80;6.75;;;17.60;87.70;;;;;;4997136;28;20044;-68
2022/06/05 06:52:03;;;;;;;7.47;6.28;;;17.70;87.60;;;;;;5000605;28;20052;-68
2022/06/05 06:54:29;;;;;;;7.70;6.90;;;17.80;87.40;;;;;;5010925;28;20370;-68
2022/06/05 06:56:55;;;;;;;9.35;6.72;;;17.80;87.10;;;;;;4999240;28;20025;-68
2022/06/05 06:59:20;;;;;;;9.05;7.38;;;17.90;87.10;;;;;;5012133;28;20386;-68
2022/06/05 07:01:46;;;;;;;8.93;6.45;;;18.00;87.00;;;;;;5017698;28;20030;-68
2022/06/05 07:04:12;;;;;;;13.00;7.28;;;18.00;86.90;;;;;;4992542;28;20023;-68
2022/06/05 07:06:37;;;;;;;10.52;7.35;;;18.20;86.70;;;;;;4997813;28;20030;-68
2022/06/05 07:09:03;;;;;;;11.15;7.13;;;18.20;86.70;;;;;;4991796;28;20038;-66
2022/06/05 07:11:29;;;;;;;12.07;8.20;;;18.30;86.40;;;;;;5002241;28;20034;-67
2022/06/05 07:13:56;;;;;;;11.63;9.00;;;18.40;86.20;;;;;;4997862;28;20037;-67
2022/06/05 07:16:22;;;;;;;10.57;7.88;;;18.50;86.00;;;;;;5003872;28;20056;-67
2022/06/05 07:18:48;;;;;;;8.77;7.00;;;18.60;86.00;;;;;;5011540;28;20026;-67
2022/06/05 07:21:17;;;;;;;8.90;6.47;;;18.60;85.70;;;;;;5015394;28;20058;-67
2022/06/05 07:23:43;;;;;;;12.32;6.65;;;18.70;85.10;;;;;;4992680;28;20485;-67
2022/06/05 07:26:11;;;;;;;9.20;7.22;;;18.70;84.90;;;;;;5013807;28;20025;-67
2022/06/05 07:28:37;;;;;;;10.80;6.68;;;18.90;84.80;;;;;;4993635;28;20118;-67
2022/06/05 07:31:04;;;;;;;8.85;6.32;;;18.90;84.20;;;;;;5021516;28;20116;-67
2022/06/05 07:33:31;;;;;;;8.13;6.70;;;19.10;84.30;;;;;;4994407;28;20026;-67
2022/06/05 07:35:59;;;;;;;9.77;7.28;;;19.10;83.80;;;;;;5025596;28;20025;-67
2022/06/05 07:38:25;;;;;;;7.88;6.78;;;19.20;83.20;;;;;;4992608;28;20083;-68
2022/06/05 07:40:50;;;;;;;9.95;7.53;;;19.20;83.10;;;;;;5020989;28;20030;-67
2022/06/05 07:43:16;;;;;;;9.27;7.97;;;19.30;83.10;;;;;;5006810;28;20027;-67
2022/06/05 07:45:45;;;;;;;9.57;7.68;;;19.40;82.90;;;;;;4994152;28;20031;-68
2022/06/05 07:48:11;;;;;;;7.68;5.97;;;19.40;82.60;;;;;;5004325;28;20053;-67
2022/06/05 07:54:26;;;;;;;7.72;5.63;;;19.50;82.20;;;;;;4996716;28;20056;-68
2022/06/05 07:56:06;;;;;;;8.23;6.23;;;19.70;81.70;;;;;;4996810;28;20037;-67
2022/06/05 07:58:31;;;;;;;8.65;5.88;;;19.80;81.10;;;;;;4990571;28;20034;-67
2022/06/05 08:00:57;;;;;;;8.10;5.90;;;19.90;81.00;;;;;;5007323;28;20578;-67
2022/06/05 08:03:22;;;;;;;7.63;6.30;;;20.00;80.40;;;;;;4999280;28;20568;-67
2022/06/05 08:05:48;;;;;;;9.73;5.72;;;20.00;80.50;;;;;;4991880;28;20482;-67
2022/06/05 08:08:14;;;;;;;8.25;5.50;;;20.10;79.90;;;;;;4995273;28;20072;-68
2022/06/05 08:10:39;;;;;;;6.40;5.10;;;20.20;79.70;;;;;;5007985;28;20049;-68
2022/06/05 08:13:05;;;;;;;6.90;5.25;;;20.30;79.10;;;;;;5008815;28;20033;-68
2022/06/05 08:15:30;;;;;;;6.47;4.88;;;20.50;78.90;;;;;;5003976;28;20057;-68
2022/06/05 08:17:56;;;;;;;6.80;5.30;;;20.60;78.80;;;;;;5019379;28;20033;-69
2022/06/05 08:20:21;;;;;;;6.53;5.53;;;20.70;78.20;;;;;;5010975;28;20030;-68
2022/06/05 08:22:48;;;;;;;14.30;9.85;;;20.80;76.80;;;;;;5008976;28;20128;-69
2022/06/05 08:25:14;;;;;;;15.60;8.85;;;20.90;76.60;;;;;;5013714;28;20067;-69
2022/06/05 08:27:43;;;;;;;9.38;6.75;;;20.90;76.10;;;;;;5014935;28;20050;-68
2022/06/05 08:30:09;;;;;;;6.68;4.93;;;21.00;75.90;;;;;;5009414;28;20180;-68
2022/06/05 08:32:34;;;;;;;6.93;5.20;;;21.10;74.90;;;;;;5001536;28;20113;-68
2022/06/05 08:35:00;;;;;;;5.13;4.28;;;21.20;74.70;;;;;;4998045;28;20026;-68
2022/06/05 08:43:42;;;;;;;5.82;4.50;;;21.50;73.40;;;;;;5023609;28;20284;-68
2022/06/05 08:46:24;;;;;;;6.82;4.18;;;21.60;71.80;;;;;;5034338;28;20651;-68
2022/06/05 08:49:16;;;;;;;5.00;4.03;;;21.70;71.20;;;;;;5031679;28;20092;-68
2022/06/05 08:52:14;;;;;;;5.57;4.13;;;21.80;70.30;;;;;;5033643;28;20021;-68
2022/06/05 08:55:11;;;;;;;6.38;4.07;;;21.90;70.00;;;;;;4997824;28;20141;-68
2022/06/05 08:57:47;;;;;;;4.50;3.78;;;22.00;68.90;;;;;;5014970;28;20397;-68
2022/06/05 09:00:24;;;;;;;4.32;3.60;;;22.10;67.90;;;;;;5027113;28;20489;-68
2022/06/05 09:03:07;;;;;;;7.10;3.67;;;22.20;67.80;;;;;;5018789;28;20029;-67
2022/06/05 09:05:39;;;;;;;4.95;3.88;;;22.30;66.90;;;;;;5026578;28;20519;-67
2022/06/05 09:08:14;;;;;;;4.10;3.47;;;22.40;65.70;;;;;;5005420;28;20033;-67
2022/06/05 09:10:46;;;;;;;5.35;3.72;;;22.50;65.40;;;;;;5019453;28;20412;-67
2022/06/05 09:13:17;;;;;;;3.85;3.30;;;22.60;66.10;;;;;;5011382;28;20057;-68
2022/06/05 09:15:55;;;;;;;4.80;3.13;;;22.70;64.60;;;;;;5028784;28;20413;-69
2022/06/05 09:18:23;;;;;;;3.90;3.20;;;22.80;64.10;;;;;;5033088;28;20022;-67
2022/06/05 09:20:57;;;;;;;3.63;3.15;;;22.90;63.20;;;;;;5005914;28;20030;-67
2022/06/05 09:23:37;;;;;;;4.35;3.80;;;23.00;63.40;;;;;;4993592;28;20029;-67
2022/06/05 09:26:27;;;;;;;4.10;3.42;;;23.00;63.60;;;;;;5007878;28;20373;-67
2022/06/05 09:29:20;;;;;;;5.05;3.33;;;23.10;64.10;;;;;;5019214;28;20030;-68
2022/06/05 09:31:54;;;;;;;4.25;3.40;;;23.20;64.30;;;;;;5027071;28;20419;-68
2022/06/05 09:34:35;;;;;;;4.93;3.80;;;23.30;63.80;;;;;;5001473;28;20486;-67
2022/06/05 09:37:09;;;;;;;5.15;3.65;;;23.40;63.50;;;;;;5011433;28;20520;-68
2022/06/05 09:39:46;;;;;;;4.38;3.55;;;23.50;63.50;;;;;;5002456;28;20103;-68
2022/06/05 09:42:44;;;;;;;4.22;3.38;;;23.60;63.50;;;;;;5006107;28;20453;-69
2022/06/05 09:45:18;;;;;;;8.32;4.00;;;23.70;63.30;;;;;;5029023;28;20494;-67
2022/06/05 09:48:05;;;;;;;5.13;3.85;;;23.80;62.90;;;;;;5011487;28;20500;-67
2022/06/05 09:50:31;;;;;;;8.48;4.18;;;23.90;62.70;;;;;;5027033;28;20481;-67
2022/06/05 09:52:57;;;;;;;3.90;3.17;;;24.00;62.70;;;;;;5024490;28;20477;-67
2022/06/05 09:55:43;;;;;;;4.72;3.75;;;24.10;61.30;;;;;;5029530;28;20037;-67
2022/06/05 09:58:51;;;;;;;4.35;3.30;;;24.20;61.20;;;;;;5027743;28;20503;-67
2022/06/05 10:01:29;;;;;;;6.40;3.72;;;24.30;61.20;;;;;;5015070;28;20038;-67
2022/06/05 10:03:57;;;;;;;5.57;3.40;;;24.40;60.30;;;;;;5011652;28;20026;-67
2022/06/05 10:06:35;;;;;;;6.15;4.72;;;24.40;60.50;;;;;;5017583;28;20041;-67
2022/06/05 10:09:07;;;;;;;5.22;3.65;;;24.50;59.80;;;;;;5013283;28;20033;-67
2022/06/05 10:11:54;;;;;;;5.97;3.60;;;24.60;60.10;;;;;;5012787;28;20466;-67
2022/06/05 10:14:38;;;;;;;5.28;4.00;;;24.70;60.60;;;;;;5019905;28;20131;-67
2022/06/05 10:17:41;;;;;;;4.05;3.55;;;24.80;61.00;;;;;;5005774;28;20413;-67
2022/06/05 10:20:13;;;;;;;4.70;3.70;;;24.90;61.00;;;;;;5008397;28;20026;-67
2022/06/05 10:23:02;;;;;;;4.70;3.63;;;25.00;61.00;;;;;;5008966;28;20478;-67
2022/06/05 10:25:52;;;;;;;5.05;3.55;;;25.10;60.50;;;;;;5016078;28;20034;-67
2022/06/05 10:28:22;;;;;;;5.05;3.88;;;25.20;59.90;;;;;;5002095;28;20030;-69
2022/06/05 10:30:59;;;;;;;5.95;4.28;;;25.30;60.00;;;;;;5012700;28;20036;-68
2022/06/05 10:33:39;;;;;;;4.88;3.78;;;25.40;61.50;;;;;;5008441;28;20042;-67
2022/06/05 10:36:18;;;;;;;6.53;4.28;;;25.50;60.80;;;;;;5006402;28;20092;-67
2022/06/05 10:39:00;;;;;;;5.43;4.75;;;25.50;60.70;;;;;;5006562;28;20038;-68
2022/06/05 10:41:48;;;;;;;7.40;4.22;;;25.60;61.10;;;;;;5007361;28;20113;-67
2022/06/05 10:44:42;;;;;;;5.25;4.03;;;25.70;60.60;;;;;;5010884;28;20026;-67
2022/06/05 10:47:31;;;;;;;6.13;4.28;;;25.80;60.70;;;;;;4996543;28;20497;-67
2022/06/05 10:50:08;;;;;;;6.07;4.38;;;25.80;61.30;;;;;;5023119;28;20033;-67
2022/06/05 10:52:45;;;;;;;4.95;4.45;;;25.80;60.10;;;;;;5013507;28;20116;-68
2022/06/05 10:55:30;;;;;;;5.00;4.50;;;25.80;60.10;;;;;;5012970;28;20121;-68
2022/06/05 10:58:15;;;;;;;5.43;4.50;;;25.80;60.10;;;;;;5017647;28;20048;-67
2022/06/05 11:00:49;;;;;;;4.43;4.03;;;25.80;60.50;;;;;;5018990;28;20034;-67
2022/06/05 11:03:37;;;;;;;4.65;4.25;;;25.90;60.80;;;;;;5014613;28;20120;-67
2022/06/05 11:06:25;;;;;;;7.15;4.70;;;26.00;60.10;;;;;;5010572;28;20091;-68
2022/06/05 11:09:16;;;;;;;5.10;4.57;;;25.90;60.50;;;;;;5016637;28;20033;-69
2022/06/05 11:14:50;;;;;;;7.50;4.30;;;26.00;59.90;;;;;;5002209;28;20081;-68
2022/06/05 11:17:36;;;;;;;4.93;4.32;;;26.00;59.60;;;;;;5008513;28;20041;-68
2022/06/05 11:20:19;;;;;;;4.53;4.13;;;26.10;60.30;;;;;;5019273;28;20057;-68
2022/06/05 11:23:04;;;;;;;5.70;5.10;;;26.10;60.30;;;;;;5006603;28;20022;-67
2022/06/05 11:26:01;;;;;;;5.03;4.43;;;26.20;60.20;;;;;;5018359;28;20029;-67
2022/06/05 11:28:29;;;;;;;4.65;4.25;;;26.30;60.30;;;;;;5019713;28;20484;-66
2022/06/05 11:31:27;;;;;;;6.80;3.95;;;26.30;59.90;;;;;;5010455;28;20033;-67
2022/06/05 11:34:03;;;;;;;5.00;4.25;;;26.40;60.70;;;;;;5001567;28;20033;-68
2022/06/05 11:36:46;;;;;;;4.70;4.20;;;26.40;59.70;;;;;;5002888;28;20038;-67
2022/06/05 11:39:35;;;;;;;6.85;4.53;;;26.40;59.50;;;;;;5010848;28;20038;-67
2022/06/05 11:42:21;;;;;;;5.15;4.57;;;26.40;59.50;;;;;;4991047;28;20039;-67
2022/06/05 11:45:21;;;;;;;7.22;4.38;;;26.40;59.20;;;;;;5003176;28;20392;-67
2022/06/05 11:47:55;;;;;;;5.18;4.47;;;26.40;59.30;;;;;;4995635;28;20026;-67
2022/06/05 11:50:31;;;;;;;5.85;4.97;;;26.50;59.10;;;;;;5014327;28;20061;-67
2022/06/05 11:53:13;;;;;;;5.60;4.10;;;26.50;59.20;;;;;;5013713;28;20178;-67
2022/06/05 11:55:48;;;;;;;4.80;4.25;;;26.50;59.00;;;;;;5008252;28;20035;-66
2022/06/05 11:58:37;;;;;;;4.82;3.83;;;26.60;58.70;;;;;;5012784;28;20025;-67
2022/06/05 12:01:13;;;;;;;5.03;4.53;;;26.60;58.00;;;;;;5005934;28;20080;-67
2022/06/05 12:03:55;;;;;;;5.85;4.10;;;26.60;57.70;;;;;;5004626;28;20029;-67
2022/06/05 12:06:37;;;;;;;7.22;4.57;;;26.60;57.60;;;;;;5011084;28;20057;-67
2022/06/05 12:09:10;;;;;;;6.18;5.03;;;26.80;58.30;;;;;;5022400;28;20057;-67
2022/06/05 12:11:47;;;;;;;6.27;4.30;;;26.80;58.30;;;;;;5003874;28;20077;-67
2022/06/05 12:14:29;;;;;;;6.97;4.95;;;26.80;58.00;;;;;;5018868;28;20293;-66
2022/06/05 12:17:25;;;;;;;4.72;4.20;;;26.90;57.40;;;;;;5003343;28;20030;-67
2022/06/05 12:20:18;;;;;;;4.35;3.78;;;26.90;57.60;;;;;;5010250;28;20082;-67
2022/06/05 12:22:57;;;;;;;4.60;4.15;;;27.00;57.00;;;;;;5014140;28;20117;-66
2022/06/05 12:25:52;;;;;;;6.53;4.80;;;27.10;56.90;;;;;;5012837;28;20030;-67
2022/06/05 12:28:26;;;;;;;4.63;4.22;;;27.20;56.90;;;;;;5009091;28;20106;-67
2022/06/05 12:30:54;;;;;;;4.93;4.22;;;27.20;56.80;;;;;;5005315;28;20077;-68
2022/06/05 12:33:29;;;;;;;5.57;4.63;;;27.30;56.60;;;;;;5003835;28;20037;-67
2022/06/05 12:36:06;;;;;;;6.30;4.50;;;27.40;56.40;;;;;;5011994;28;20033;-67
2022/06/05 12:38:44;;;;;;;4.18;3.78;;;27.40;55.50;;;;;;5000731;28;20030;-67
2022/06/05 12:41:37;;;;;;;4.35;3.67;;;27.50;55.50;;;;;;5007533;28;20152;-67
2022/06/05 12:44:26;;;;;;;6.35;4.75;;;27.60;55.30;;;;;;5003017;28;20037;-67
2022/06/05 12:47:04;;;;;;;5.05;4.13;;;27.60;55.20;;;;;;5005058;28;20022;-66
2022/06/05 12:49:54;;;;;;;5.45;4.95;;;27.70;54.90;;;;;;5005135;28;20124;-67
2022/06/05 12:52:35;;;;;;;4.38;3.97;;;27.80;55.20;;;;;;5010897;28;20041;-67
2022/06/05 12:55:16;;;;;;;4.40;3.78;;;27.90;55.30;;;;;;5011233;28;20037;-67
2022/06/05 12:57:45;;;;;;;4.60;4.20;;;28.00;56.00;;;;;;4997890;28;20035;-67
2022/06/05 13:00:47;;;;;;;5.22;4.72;;;28.20;54.20;;;;;;5018087;28;20032;-67
2022/06/05 13:03:35;;;;;;;6.93;4.68;;;28.30;54.10;;;;;;4998349;28;20084;-68
2022/06/05 13:06:27;;;;;;;5.88;4.53;;;28.40;53.90;;;;;;5000202;28;20034;-68
2022/06/05 13:08:56;;;;;;;;;;;28.50;53.70;;;;;;5000580;28;20552;-68
2022/06/05 13:11:29;;;;;;;5.43;4.78;;;28.50;54.70;;;;;;5007140;28;19917;-67
2022/06/05 13:14:07;;;;;;;4.78;4.32;;;28.60;54.40;;;;;;5007138;28;20045;-67
2022/06/05 13:16:49;;;;;;;6.20;4.80;;;28.70;54.10;;;;;;4994200;28;20490;-67
2022/06/05 13:19:23;;;;;;;4.90;4.43;;;28.70;53.90;;;;;;5018158;28;20045;-67
2022/06/05 13:22:26;;;;;;;6.18;4.93;;;28.80;54.30;;;;;;5000167;28;20026;-67
2022/06/05 13:25:11;;;;;;;5.63;4.72;;;28.90;53.80;;;;;;5027003;28;20072;-67
2022/06/05 13:27:58;;;;;;;5.97;4.55;;;29.00;52.90;;;;;;5002273;28;20042;-66
2022/06/05 13:30:28;;;;;;;4.88;4.43;;;29.10;51.60;;;;;;5012610;28;20053;-67
2022/06/05 13:33:08;;;;;;;6.10;4.90;;;29.10;52.30;;;;;;5010541;28;20034;-67
2022/06/05 13:35:51;;;;;;;5.38;4.88;;;29.20;52.60;;;;;;4997738;28;20038;-68